Terminal Aerodrome Forecast
Issued by NWS

Home | Current Version | Previous Version | Text Only | Print | Product List | Glossary On
Versions: 1 2 3 4 5 6 7 8 9 10 11 12 13 14 15 16 17 18 19 20 21
000
FTUS44 KLIX 271100 CCA
TAFHDC
TAF COR
KHDC 271142Z 2712/2812 09005KT P6SM SCT006 OVC015
      TEMPO 2712/2716 1SM SHRA BR BKN006
     FM271600 14007KT 3SM +SHRA BR OVC010
     FM280000 18004KT 1SM +SHRA BR OVC003
      AMD NOT SKED=

USA.gov is the U.S. government's official web portal to all federal, state and local government web resources and services.